sensor_id;sensor_type;location;lat;lon;timestamp;pressure;altitude;pressure_sealevel;temperature;humidity
35806;BME280;21925;44.608;11.580;2023-05-12T00:00:17;101225.34;;;16.60;100.00
35806;BME280;21925;44.608;11.580;2023-05-12T00:02:45;101266.81;;;16.85;100.00
35806;BME280;21925;44.608;11.580;2023-05-12T00:05:11;101254.63;;;17.23;100.00
35806;BME280;21925;44.608;11.580;2023-05-12T00:07:36;101268.66;;;17.37;100.00
35806;BME280;21925;44.608;11.580;2023-05-12T00:10:03;101231.47;;;17.41;100.00
35806;BME280;21925;44.608;11.580;2023-05-12T00:12:30;101246.06;;;17.35;100.00
35806;BME280;21925;44.608;11.580;2023-05-12T00:14:56;101229.81;;;17.00;100.00
35806;BME280;21925;44.608;11.580;2023-05-12T00:17:23;101239.94;;;17.22;100.00
35806;BME280;21925;44.608;11.580;2023-05-12T00:19:49;101263.44;;;17.28;100.00
35806;BME280;21925;44.608;11.580;2023-05-12T00:22:14;101224.94;;;16.90;100.00
35806;BME280;21925;44.608;11.580;2023-05-12T00:24:41;101231.53;;;16.79;100.00
35806;BME280;21925;44.608;11.580;2023-05-12T00:27:06;101240.72;;;16.86;100.00
35806;BME280;21925;44.608;11.580;2023-05-12T00:29:33;101218.22;;;16.91;100.00
35806;BME280;21925;44.608;11.580;2023-05-12T00:31:59;101235.69;;;16.95;100.00
35806;BME280;21925;44.608;11.580;2023-05-12T00:34:28;101228.09;;;16.89;100.00
35806;BME280;21925;44.608;11.580;2023-05-12T00:36:54;101241.69;;;17.01;100.00
35806;BME280;21925;44.608;11.580;2023-05-12T00:39:20;101213.94;;;16.97;100.00
35806;BME280;21925;44.608;11.580;2023-05-12T00:41:46;101228.53;;;17.27;100.00
35806;BME280;21925;44.608;11.580;2023-05-12T00:44:12;101229.81;;;17.33;100.00
35806;BME280;21925;44.608;11.580;2023-05-12T00:46:38;101235.16;;;17.52;100.00
35806;BME280;21925;44.608;11.580;2023-05-12T00:49:04;101203.88;;;17.19;100.00
35806;BME280;21925;44.608;11.580;2023-05-12T00:51:29;101187.25;;;17.19;100.00
35806;BME280;21925;44.608;11.580;2023-05-12T00:53:56;101220.75;;;17.36;100.00
35806;BME280;21925;44.608;11.580;2023-05-12T00:56:26;101242.63;;;17.48;100.00
35806;BME280;21925;44.608;11.580;2023-05-12T00:58:52;101209.69;;;17.40;100.00
35806;BME280;21925;44.608;11.580;2023-05-12T01:01:18;101229.09;;;17.40;100.00
35806;BME280;21925;44.608;11.580;2023-05-12T01:03:46;101170.78;;;16.96;100.00
35806;BME280;21925;44.608;11.580;2023-05-12T01:06:17;101241.06;;;17.14;100.00
35806;BME280;21925;44.608;11.580;2023-05-12T01:08:46;101243.34;;;17.09;100.00
35806;BME280;21925;44.608;11.580;2023-05-12T01:11:12;101258.34;;;17.37;100.00
35806;BME280;21925;44.608;11.580;2023-05-12T01:13:38;101268.06;;;17.21;100.00
35806;BME280;21925;44.608;11.580;2023-05-12T01:16:08;101239.38;;;17.06;100.00
35806;BME280;21925;44.608;11.580;2023-05-12T01:18:37;101264.00;;;17.11;100.00
35806;BME280;21925;44.608;11.580;2023-05-12T01:21:04;101257.88;;;17.28;100.00
35806;BME280;21925;44.608;11.580;2023-05-12T01:23:36;101236.41;;;17.22;100.00
35806;BME280;21925;44.608;11.580;2023-05-12T01:26:06;101245.25;;;17.31;100.00
35806;BME280;21925;44.608;11.580;2023-05-12T01:28:36;101247.19;;;17.30;100.00
35806;BME280;21925;44.608;11.580;2023-05-12T01:31:05;101249.81;;;17.20;100.00
35806;BME280;21925;44.608;11.580;2023-05-12T01:33:33;101236.59;;;17.06;100.00
35806;BME280;21925;44.608;11.580;2023-05-12T01:36:00;101243.59;;;16.93;100.00
35806;BME280;21925;44.608;11.580;2023-05-12T01:38:26;101223.03;;;16.65;100.00
35806;BME280;21925;44.608;11.580;2023-05-12T01:40:52;101228.88;;;16.89;100.00
35806;BME280;21925;44.608;11.580;2023-05-12T01:43:18;101222.03;;;16.80;100.00
35806;BME280;21925;44.608;11.580;2023-05-12T01:45:44;101240.31;;;16.84;100.00
35806;BME280;21925;44.608;11.580;2023-05-12T01:48:10;101246.19;;;16.79;100.00
35806;BME280;21925;44.608;11.580;2023-05-12T01:50:36;101246.78;;;16.95;100.00
35806;BME280;21925;44.608;11.580;2023-05-12T01:53:06;101198.13;;;16.65;100.00
35806;BME280;21925;44.608;11.580;2023-05-12T01:55:32;101227.97;;;16.78;100.00
35806;BME280;21925;44.608;11.580;2023-05-12T01:57:58;101232.34;;;16.79;100.00
35806;BME280;21925;44.608;11.580;2023-05-12T02:00:24;101214.34;;;16.67;100.00
35806;BME280;21925;44.608;11.580;2023-05-12T02:02:53;101236.97;;;16.43;100.00
35806;BME280;21925;44.608;11.580;2023-05-12T02:05:19;101225.63;;;16.25;100.00
35806;BME280;21925;44.608;11.580;2023-05-12T02:07:48;101239.81;;;16.50;100.00
35806;BME280;21925;44.608;11.580;2023-05-12T02:10:14;101196.03;;;16.03;100.00
35806;BME280;21925;44.608;11.580;2023-05-12T02:12:40;101247.19;;;16.39;100.00
35806;BME280;21925;44.608;11.580;2023-05-12T02:15:06;101248.09;;;16.46;100.00
35806;BME280;21925;44.608;11.580;2023-05-12T02:17:34;101228.34;;;16.22;100.00
35806;BME280;21925;44.608;11.580;2023-05-12T02:20:03;101247.94;;;16.36;100.00
35806;BME280;21925;44.608;11.580;2023-05-12T02:22:29;101241.13;;;16.30;100.00
35806;BME280;21925;44.608;11.580;2023-05-12T02:24:57;101240.56;;;16.21;100.00
35806;BME280;21925;44.608;11.580;2023-05-12T02:27:24;101196.72;;;15.71;100.00
35806;BME280;21925;44.608;11.580;2023-05-12T02:29:50;101237.38;;;16.19;100.00
35806;BME280;21925;44.608;11.580;2023-05-12T02:32:20;101222.38;;;15.72;100.00
35806;BME280;21925;44.608;11.580;2023-05-12T02:34:46;101212.81;;;15.66;100.00
35806;BME280;21925;44.608;11.580;2023-05-12T02:37:13;101217.66;;;15.72;100.00
35806;BME280;21925;44.608;11.580;2023-05-12T02:39:39;101221.38;;;15.83;100.00
35806;BME280;21925;44.608;11.580;2023-05-12T02:42:05;101237.06;;;15.98;100.00
35806;BME280;21925;44.608;11.580;2023-05-12T02:44:31;101202.63;;;15.70;100.00
35806;BME280;21925;44.608;11.580;2023-05-12T02:46:58;101220.22;;;15.84;100.00
35806;BME280;21925;44.608;11.580;2023-05-12T02:49:27;101218.81;;;15.94;100.00
35806;BME280;21925;44.608;11.580;2023-05-12T02:51:53;101212.22;;;16.01;100.00
35806;BME280;21925;44.608;11.580;2023-05-12T02:54:22;101224.16;;;15.83;100.00
35806;BME280;21925;44.608;11.580;2023-05-12T02:56:48;101213.94;;;15.87;100.00
35806;BME280;21925;44.608;11.580;2023-05-12T02:59:14;101229.84;;;16.42;100.00
35806;BME280;21925;44.608;11.580;2023-05-12T03:01:41;101226.00;;;16.50;100.00
35806;BME280;21925;44.608;11.580;2023-05-12T03:04:07;101219.63;;;16.46;100.00
35806;BME280;21925;44.608;11.580;2023-05-12T03:06:33;101233.31;;;16.65;100.00
35806;BME280;21925;44.608;11.580;2023-05-12T03:08:59;101161.31;;;16.06;100.00
35806;BME280;21925;44.608;11.580;2023-05-12T03:11:25;101199.13;;;16.50;100.00
35806;BME280;21925;44.608;11.580;2023-05-12T03:13:54;101233.63;;;16.89;100.00
35806;BME280;21925;44.608;11.580;2023-05-12T03:16:21;101205.84;;;16.82;100.00
35806;BME280;21925;44.608;11.580;2023-05-12T03:18:47;101206.00;;;16.96;100.00
35806;BME280;21925;44.608;11.580;2023-05-12T03:21:13;101235.81;;;17.06;100.00
35806;BME280;21925;44.608;11.580;2023-05-12T03:23:39;101192.38;;;16.80;100.00
35806;BME280;21925;44.608;11.580;2023-05-12T03:26:04;101203.22;;;16.92;100.00
35806;BME280;21925;44.608;11.580;2023-05-12T03:28:30;101234.22;;;17.05;100.00
35806;BME280;21925;44.608;11.580;2023-05-12T03:30:56;101239.28;;;16.99;100.00
35806;BME280;21925;44.608;11.580;2023-05-12T03:33:22;101229.31;;;16.91;100.00
35806;BME280;21925;44.608;11.580;2023-05-12T03:35:49;101230.47;;;16.90;100.00
35806;BME280;21925;44.608;11.580;2023-05-12T03:38:16;101236.69;;;17.13;100.00
35806;BME280;21925;44.608;11.580;2023-05-12T03:40:42;101194.84;;;16.89;100.00
35806;BME280;21925;44.608;11.580;2023-05-12T03:43:08;101238.78;;;17.23;100.00
35806;BME280;21925;44.608;11.580;2023-05-12T03:45:34;101214.38;;;16.99;100.00
35806;BME280;21925;44.608;11.580;2023-05-12T03:47:59;101236.03;;;16.90;100.00
35806;BME280;21925;44.608;11.580;2023-05-12T03:50:25;101231.47;;;16.46;100.00
35806;BME280;21925;44.608;11.580;2023-05-12T03:52:52;101234.28;;;16.50;100.00
35806;BME280;21925;44.608;11.580;2023-05-12T03:55:20;101210.59;;;16.52;100.00
35806;BME280;21925;44.608;11.580;2023-05-12T03:57:47;101220.53;;;16.57;100.00
35806;BME280;21925;44.608;11.580;2023-05-12T04:00:13;101233.94;;;16.51;100.00
35806;BME280;21925;44.608;11.580;2023-05-12T04:02:42;101219.53;;;16.39;100.00
35806;BME280;21925;44.608;11.580;2023-05-12T04:05:10;101211.94;;;16.10;100.00
35806;BME280;21925;44.608;11.580;2023-05-12T04:07:37;101214.81;;;15.91;100.00
35806;BME280;21925;44.608;11.580;2023-05-12T04:10:07;101234.53;;;16.38;100.00
35806;BME280;21925;44.608;11.580;2023-05-12T04:12:34;101236.50;;;16.67;100.00
35806;BME280;21925;44.608;11.580;2023-05-12T04:15:00;101212.94;;;16.79;100.00
35806;BME280;21925;44.608;11.580;2023-05-12T04:17:26;101198.69;;;16.77;100.00
35806;BME280;21925;44.608;11.580;2023-05-12T04:19:52;101238.56;;;17.02;100.00
35806;BME280;21925;44.608;11.580;2023-05-12T04:22:18;101181.09;;;16.63;100.00
35806;BME280;21925;44.608;11.580;2023-05-12T04:24:44;101246.34;;;16.93;100.00
35806;BME280;21925;44.608;11.580;2023-05-12T04:27:10;101228.31;;;16.48;100.00
35806;BME280;21925;44.608;11.580;2023-05-12T04:29:39;101212.75;;;16.10;100.00
35806;BME280;21925;44.608;11.580;2023-05-12T04:32:05;101236.09;;;16.35;100.00
35806;BME280;21925;44.608;11.580;2023-05-12T04:34:31;101235.16;;;16.28;100.00
35806;BME280;21925;44.608;11.580;2023-05-12T04:36:58;101205.44;;;16.25;100.00
35806;BME280;21925;44.608;11.580;2023-05-12T04:39:24;101247.91;;;16.10;100.00
35806;BME280;21925;44.608;11.580;2023-05-12T04:41:53;101244.88;;;16.18;100.00
35806;BME280;21925;44.608;11.580;2023-05-12T04:44:20;101194.06;;;15.78;100.00
35806;BME280;21925;44.608;11.580;2023-05-12T04:46:48;101227.31;;;16.30;100.00
35806;BME280;21925;44.608;11.580;2023-05-12T04:49:18;101245.88;;;16.59;100.00
35806;BME280;21925;44.608;11.580;2023-05-12T04:51:44;101232.84;;;16.59;100.00
35806;BME280;21925;44.608;11.580;2023-05-12T04:54:10;101262.34;;;16.74;100.00
35806;BME280;21925;44.608;11.580;2023-05-12T04:56:37;101271.41;;;16.75;100.00
35806;BME280;21925;44.608;11.580;2023-05-12T04:59:03;101264.38;;;16.80;100.00
35806;BME280;21925;44.608;11.580;2023-05-12T05:01:29;101276.22;;;16.77;100.00
35806;BME280;21925;44.608;11.580;2023-05-12T05:03:58;101280.06;;;16.70;100.00
35806;BME280;21925;44.608;11.580;2023-05-12T05:06:24;101244.81;;;16.67;100.00
35806;BME280;21925;44.608;11.580;2023-05-12T05:08:54;101258.00;;;16.77;100.00
35806;BME280;21925;44.608;11.580;2023-05-12T05:11:21;101266.16;;;16.95;100.00
35806;BME280;21925;44.608;11.580;2023-05-12T05:13:47;101251.31;;;17.10;100.00
35806;BME280;21925;44.608;11.580;2023-05-12T05:16:14;101270.44;;;16.89;100.00
35806;BME280;21925;44.608;11.580;2023-05-12T05:18:42;101264.22;;;16.99;100.00
35806;BME280;21925;44.608;11.580;2023-05-12T05:21:12;101264.75;;;17.08;100.00
35806;BME280;21925;44.608;11.580;2023-05-12T05:23:40;101259.28;;;17.15;100.00
35806;BME280;21925;44.608;11.580;2023-05-12T05:26:07;101260.47;;;16.85;100.00
35806;BME280;21925;44.608;11.580;2023-05-12T05:28:34;101266.50;;;17.23;100.00
35806;BME280;21925;44.608;11.580;2023-05-12T05:31:00;101266.75;;;17.11;100.00
35806;BME280;21925;44.608;11.580;2023-05-12T05:33:29;101278.19;;;17.39;100.00
35806;BME280;21925;44.608;11.580;2023-05-12T05:35:56;101273.00;;;17.34;100.00
35806;BME280;21925;44.608;11.580;2023-05-12T05:38:24;101255.19;;;17.35;100.00
35806;BME280;21925;44.608;11.580;2023-05-12T05:40:51;101276.78;;;17.23;100.00
35806;BME280;21925;44.608;11.580;2023-05-12T05:43:17;101261.75;;;16.91;100.00
35806;BME280;21925;44.608;11.580;2023-05-12T05:45:44;101288.16;;;17.47;100.00
35806;BME280;21925;44.608;11.580;2023-05-12T05:48:14;101283.66;;;17.68;100.00
35806;BME280;21925;44.608;11.580;2023-05-12T05:50:40;101277.34;;;17.71;100.00
35806;BME280;21925;44.608;11.580;2023-05-12T05:53:06;101287.22;;;17.33;100.00
35806;BME280;21925;44.608;11.580;2023-05-12T05:55:33;101288.16;;;17.47;100.00
35806;BME280;21925;44.608;11.580;2023-05-12T05:58:03;101295.31;;;17.48;100.00
35806;BME280;21925;44.608;11.580;2023-05-12T06:00:30;101275.56;;;17.53;100.00
35806;BME280;21925;44.608;11.580;2023-05-12T06:02:57;101285.28;;;17.73;100.00
35806;BME280;21925;44.608;11.580;2023-05-12T06:05:23;101272.44;;;17.58;100.00
35806;BME280;21925;44.608;11.580;2023-05-12T06:07:49;101232.63;;;17.37;100.00
35806;BME280;21925;44.608;11.580;2023-05-12T06:10:21;101290.81;;;18.16;100.00
35806;BME280;21925;44.608;11.580;2023-05-12T06:12:47;101257.25;;;17.85;100.00
35806;BME280;21925;44.608;11.580;2023-05-12T06:15:15;101282.25;;;17.88;100.00
35806;BME280;21925;44.608;11.580;2023-05-12T06:17:41;101283.09;;;18.42;100.00
35806;BME280;21925;44.608;11.580;2023-05-12T06:20:07;101295.84;;;18.50;100.00
35806;BME280;21925;44.608;11.580;2023-05-12T06:22:33;101285.53;;;18.47;100.00
35806;BME280;21925;44.608;11.580;2023-05-12T06:25:00;101257.81;;;18.54;100.00
35806;BME280;21925;44.608;11.580;2023-05-12T06:27:26;101276.06;;;18.55;100.00
35806;BME280;21925;44.608;11.580;2023-05-12T06:29:52;101308.16;;;19.21;100.00
35806;BME280;21925;44.608;11.580;2023-05-12T06:32:18;101248.06;;;18.92;100.00
35806;BME280;21925;44.608;11.580;2023-05-12T06:34:44;101267.28;;;18.46;100.00
35806;BME280;21925;44.608;11.580;2023-05-12T06:37:10;101289.28;;;18.76;100.00
35806;BME280;21925;44.608;11.580;2023-05-12T06:39:36;101316.41;;;19.03;100.00
35806;BME280;21925;44.608;11.580;2023-05-12T06:42:02;101288.66;;;19.10;100.00
35806;BME280;21925;44.608;11.580;2023-05-12T06:44:38;101273.72;;;19.70;100.00
35806;BME280;21925;44.608;11.580;2023-05-12T06:47:05;101284.09;;;19.80;100.00
35806;BME280;21925;44.608;11.580;2023-05-12T06:49:31;101323.91;;;20.19;98.83
35806;BME280;21925;44.608;11.580;2023-05-12T06:52:00;101286.44;;;19.61;95.93
35806;BME280;21925;44.608;11.580;2023-05-12T06:54:27;101333.78;;;19.85;97.67
35806;BME280;21925;44.608;11.580;2023-05-12T06:56:53;101313.09;;;19.76;95.77
35806;BME280;21925;44.608;11.580;2023-05-12T06:59:19;101334.19;;;19.77;94.96
35806;BME280;21925;44.608;11.580;2023-05-12T07:01:45;101304.75;;;19.62;93.48
35806;BME280;21925;44.608;11.580;2023-05-12T07:04:11;101313.56;;;20.30;96.24
35806;BME280;21925;44.608;11.580;2023-05-12T07:06:37;101312.78;;;20.08;92.15
35806;BME280;21925;44.608;11.580;2023-05-12T07:09:02;101317.53;;;20.46;96.60
35806;BME280;21925;44.608;11.580;2023-05-12T07:11:29;101301.97;;;20.80;96.00
35806;BME280;21925;44.608;11.580;2023-05-12T07:13:55;101325.88;;;20.46;89.84
35806;BME280;21925;44.608;11.580;2023-05-12T07:16:21;101325.50;;;20.09;90.08
35806;BME280;21925;44.608;11.580;2023-05-12T07:18:47;101273.78;;;20.26;94.48
35806;BME280;21925;44.608;11.580;2023-05-12T07:21:13;101294.44;;;20.53;93.54
35806;BME280;21925;44.608;11.580;2023-05-12T07:23:40;101324.16;;;21.22;93.45
35806;BME280;21925;44.608;11.580;2023-05-12T07:26:07;101290.25;;;21.27;88.10
35806;BME280;21925;44.608;11.580;2023-05-12T07:28:36;101330.38;;;21.54;87.06
35806;BME280;21925;44.608;11.580;2023-05-12T07:31:06;101337.41;;;20.62;84.95
35806;BME280;21925;44.608;11.580;2023-05-12T07:33:33;101307.94;;;20.82;88.85
35806;BME280;21925;44.608;11.580;2023-05-12T07:36:00;101324.69;;;20.40;83.24
35806;BME280;21925;44.608;11.580;2023-05-12T07:38:26;101298.03;;;20.46;85.73
35806;BME280;21925;44.608;11.580;2023-05-12T07:40:52;101292.84;;;20.80;86.61
35806;BME280;21925;44.608;11.580;2023-05-12T07:43:18;101297.59;;;20.65;86.79
35806;BME280;21925;44.608;11.580;2023-05-12T07:45:44;101314.66;;;20.95;87.83
35806;BME280;21925;44.608;11.580;2023-05-12T07:48:19;101310.16;;;21.32;84.53
35806;BME280;21925;44.608;11.580;2023-05-12T07:50:52;101326.09;;;21.25;85.97
35806;BME280;21925;44.608;11.580;2023-05-12T07:53:21;101325.50;;;20.58;83.72
35806;BME280;21925;44.608;11.580;2023-05-12T07:55:54;101276.09;;;20.76;87.82
35806;BME280;21925;44.608;11.580;2023-05-12T07:58:21;101313.63;;;21.54;87.09
35806;BME280;21925;44.608;11.580;2023-05-12T08:00:52;101327.97;;;21.59;85.59
35806;BME280;21925;44.608;11.580;2023-05-12T08:03:35;101327.66;;;22.55;87.86
35806;BME280;21925;44.608;11.580;2023-05-12T08:06:02;101321.91;;;23.72;82.65
35806;BME280;21925;44.608;11.580;2023-05-12T08:08:31;101302.28;;;22.79;74.26
35806;BME280;21925;44.608;11.580;2023-05-12T08:11:00;101325.53;;;23.10;77.55
35806;BME280;21925;44.608;11.580;2023-05-12T08:13:26;101329.59;;;23.02;75.27
35806;BME280;21925;44.608;11.580;2023-05-12T08:15:59;101302.06;;;22.97;71.62
35806;BME280;21925;44.608;11.580;2023-05-12T08:18:30;101312.53;;;22.02;69.05
35806;BME280;21925;44.608;11.580;2023-05-12T08:20:57;101324.78;;;22.62;71.97
35806;BME280;21925;44.608;11.580;2023-05-12T08:23:23;101325.19;;;23.01;73.94
35806;BME280;21925;44.608;11.580;2023-05-12T08:25:51;101322.19;;;24.08;76.33
35806;BME280;21925;44.608;11.580;2023-05-12T08:28:18;101321.41;;;24.76;72.54
35806;BME280;21925;44.608;11.580;2023-05-12T08:30:45;101303.56;;;25.28;73.01
35806;BME280;21925;44.608;11.580;2023-05-12T08:33:12;101321.28;;;24.37;64.38
35806;BME280;21925;44.608;11.580;2023-05-12T08:35:44;101320.81;;;24.65;67.11
35806;BME280;21925;44.608;11.580;2023-05-12T08:38:11;101319.03;;;22.79;71.42
35806;BME280;21925;44.608;11.580;2023-05-12T08:40:48;101322.41;;;21.52;73.71
35806;BME280;21925;44.608;11.580;2023-05-12T08:43:25;101321.50;;;22.27;74.11
35806;BME280;21925;44.608;11.580;2023-05-12T08:45:58;101309.53;;;22.26;71.17
35806;BME280;21925;44.608;11.580;2023-05-12T08:48:27;101317.44;;;23.78;71.02
35806;BME280;21925;44.608;11.580;2023-05-12T08:50:54;101309.78;;;23.82;69.13
35806;BME280;21925;44.608;11.580;2023-05-12T08:53:25;101314.38;;;25.06;71.51
35806;BME280;21925;44.608;11.580;2023-05-12T08:55:55;101323.59;;;24.88;64.44
35806;BME280;21925;44.608;11.580;2023-05-12T08:58:24;101327.94;;;23.67;62.81
35806;BME280;21925;44.608;11.580;2023-05-12T09:00:51;101336.91;;;24.38;64.55
35806;BME280;21925;44.608;11.580;2023-05-12T09:03:20;101331.47;;;23.45;63.71
35806;BME280;21925;44.608;11.580;2023-05-12T09:05:49;101332.78;;;24.19;66.91
35806;BME280;21925;44.608;11.580;2023-05-12T09:08:15;101323.72;;;24.81;67.05
35806;BME280;21925;44.608;11.580;2023-05-12T09:10:44;101325.09;;;24.50;64.46
35806;BME280;21925;44.608;11.580;2023-05-12T09:13:27;101325.53;;;26.03;69.18
35806;BME280;21925;44.608;11.580;2023-05-12T09:15:59;101328.66;;;27.01;64.49
35806;BME280;21925;44.608;11.580;2023-05-12T09:18:52;101321.06;;;26.38;60.29
35806;BME280;21925;44.608;11.580;2023-05-12T09:21:22;101328.94;;;25.01;62.43
35806;BME280;21925;44.608;11.580;2023-05-12T09:24:07;101321.41;;;24.30;64.79
35806;BME280;21925;44.608;11.580;2023-05-12T09:26:46;101312.00;;;23.64;64.91
35806;BME280;21925;44.608;11.580;2023-05-12T09:29:13;101313.09;;;23.74;65.49
35806;BME280;21925;44.608;11.580;2023-05-12T09:31:49;101293.97;;;23.95;65.11
35806;BME280;21925;44.608;11.580;2023-05-12T09:34:40;101315.44;;;24.93;61.64
35806;BME280;21925;44.608;11.580;2023-05-12T09:37:07;101311.91;;;26.18;63.13
35806;BME280;21925;44.608;11.580;2023-05-12T09:39:35;101313.78;;;27.00;60.93
35806;BME280;21925;44.608;11.580;2023-05-12T09:42:02;101302.59;;;26.05;59.22
35806;BME280;21925;44.608;11.580;2023-05-12T09:44:31;101308.38;;;24.66;60.54
35806;BME280;21925;44.608;11.580;2023-05-12T09:47:12;101273.03;;;24.49;62.09
35806;BME280;21925;44.608;11.580;2023-05-12T09:49:45;101277.66;;;24.36;62.17
35806;BME280;21925;44.608;11.580;2023-05-12T09:52:14;101303.13;;;25.84;63.35
35806;BME280;21925;44.608;11.580;2023-05-12T09:54:42;101314.25;;;27.40;62.46
35806;BME280;21925;44.608;11.580;2023-05-12T09:57:12;101294.84;;;26.72;58.58
35806;BME280;21925;44.608;11.580;2023-05-12T09:59:56;101298.53;;;26.98;59.66
35806;BME280;21925;44.608;11.580;2023-05-12T10:02:40;101310.03;;;27.85;61.99
35806;BME280;21925;44.608;11.580;2023-05-12T10:05:16;101294.66;;;28.35;60.10
35806;BME280;21925;44.608;11.580;2023-05-12T10:07:52;101293.31;;;28.15;56.61
35806;BME280;21925;44.608;11.580;2023-05-12T10:10:25;101281.13;;;28.18;57.29
35806;BME280;21925;44.608;11.580;2023-05-12T10:12:54;101283.75;;;27.63;55.12
35806;BME280;21925;44.608;11.580;2023-05-12T10:15:22;101270.25;;;27.83;57.04
35806;BME280;21925;44.608;11.580;2023-05-12T10:17:57;101264.31;;;26.99;58.42
35806;BME280;21925;44.608;11.580;2023-05-12T10:20:26;101262.44;;;27.49;61.71
35806;BME280;21925;44.608;11.580;2023-05-12T10:22:57;101247.31;;;27.43;59.01
35806;BME280;21925;44.608;11.580;2023-05-12T10:25:25;101266.06;;;27.87;57.41
35806;BME280;21925;44.608;11.580;2023-05-12T10:27:55;101293.63;;;28.88;57.04
35806;BME280;21925;44.608;11.580;2023-05-12T10:30:22;101272.22;;;28.07;55.91
35806;BME280;21925;44.608;11.580;2023-05-12T10:32:52;101285.88;;;30.04;59.79
35806;BME280;21925;44.608;11.580;2023-05-12T10:35:19;101264.91;;;29.54;54.94
35806;BME280;21925;44.608;11.580;2023-05-12T10:37:49;101270.56;;;29.54;58.45
35806;BME280;21925;44.608;11.580;2023-05-12T10:40:23;101251.56;;;29.33;55.04
35806;BME280;21925;44.608;11.580;2023-05-12T10:42:51;101272.78;;;30.73;58.71
35806;BME280;21925;44.608;11.580;2023-05-12T10:45:22;101281.09;;;29.93;54.05
35806;BME280;21925;44.608;11.580;2023-05-12T10:48:04;101235.91;;;28.89;55.96
35806;BME280;21925;44.608;11.580;2023-05-12T10:50:33;101256.66;;;29.16;56.41
35806;BME280;21925;44.608;11.580;2023-05-12T10:53:00;101274.19;;;29.63;55.56
35806;BME280;21925;44.608;11.580;2023-05-12T10:55:49;101272.28;;;29.30;57.09
35806;BME280;21925;44.608;11.580;2023-05-12T10:58:20;101267.28;;;29.95;57.62
35806;BME280;21925;44.608;11.580;2023-05-12T11:00:49;101280.19;;;30.79;56.36
35806;BME280;21925;44.608;11.580;2023-05-12T11:03:22;101263.22;;;29.96;57.36
35806;BME280;21925;44.608;11.580;2023-05-12T11:06:02;101276.34;;;28.86;57.39
35806;BME280;21925;44.608;11.580;2023-05-12T11:08:28;101281.91;;;27.44;57.88
35806;BME280;21925;44.608;11.580;2023-05-12T11:10:57;101278.09;;;28.00;58.58
35806;BME280;21925;44.608;11.580;2023-05-12T11:13:27;101281.41;;;27.21;56.10
35806;BME280;21925;44.608;11.580;2023-05-12T11:15:55;101267.72;;;27.60;58.41
35806;BME280;21925;44.608;11.580;2023-05-12T11:18:22;101280.34;;;28.18;60.60
35806;BME280;21925;44.608;11.580;2023-05-12T11:20:49;101251.06;;;28.49;58.80
35806;BME280;21925;44.608;11.580;2023-05-12T11:23:26;101272.78;;;28.15;59.02
35806;BME280;21925;44.608;11.580;2023-05-12T11:25:54;101262.41;;;27.37;59.47
35806;BME280;21925;44.608;11.580;2023-05-12T11:28:22;101267.69;;;27.35;60.80
35806;BME280;21925;44.608;11.580;2023-05-12T11:30:52;101272.41;;;27.13;61.17
35806;BME280;21925;44.608;11.580;2023-05-12T11:33:20;101265.63;;;27.23;63.38
35806;BME280;21925;44.608;11.580;2023-05-12T11:35:49;101276.59;;;27.34;61.33
35806;BME280;21925;44.608;11.580;2023-05-12T11:38:17;101266.00;;;27.38;60.96
35806;BME280;21925;44.608;11.580;2023-05-12T11:40:44;101268.88;;;27.09;61.79
35806;BME280;21925;44.608;11.580;2023-05-12T11:43:18;101269.56;;;26.85;60.87
35806;BME280;21925;44.608;11.580;2023-05-12T11:45:44;101219.78;;;25.93;61.79
35806;BME280;21925;44.608;11.580;2023-05-12T11:48:12;101219.19;;;26.46;63.08
35806;BME280;21925;44.608;11.580;2023-05-12T11:50:40;101264.69;;;28.29;60.47
35806;BME280;21925;44.608;11.580;2023-05-12T11:53:10;101246.09;;;27.82;59.02
35806;BME280;21925;44.608;11.580;2023-05-12T11:55:49;101251.94;;;27.50;59.13
35806;BME280;21925;44.608;11.580;2023-05-12T11:58:20;101266.56;;;27.33;60.70
35806;BME280;21925;44.608;11.580;2023-05-12T12:00:47;101250.16;;;27.81;59.65
35806;BME280;21925;44.608;11.580;2023-05-12T12:03:18;101253.75;;;27.56;61.61
35806;BME280;21925;44.608;11.580;2023-05-12T12:05:59;101267.41;;;27.95;57.17
35806;BME280;21925;44.608;11.580;2023-05-12T12:08:27;101275.88;;;27.83;58.55
35806;BME280;21925;44.608;11.580;2023-05-12T12:10:54;101256.31;;;28.59;56.76
35806;BME280;21925;44.608;11.580;2023-05-12T12:13:22;101263.00;;;27.82;56.55
35806;BME280;21925;44.608;11.580;2023-05-12T12:15:48;101265.44;;;27.55;57.11
35806;BME280;21925;44.608;11.580;2023-05-12T12:18:15;101231.88;;;27.48;58.15
35806;BME280;21925;44.608;11.580;2023-05-12T12:20:42;101231.66;;;26.89;59.22
35806;BME280;21925;44.608;11.580;2023-05-12T12:23:08;101271.72;;;26.93;61.28
35806;BME280;21925;44.608;11.580;2023-05-12T12:25:34;101242.75;;;26.80;59.78
35806;BME280;21925;44.608;11.580;2023-05-12T12:28:03;101266.88;;;26.81;61.77
35806;BME280;21925;44.608;11.580;2023-05-12T12:30:32;101258.47;;;26.34;62.37
35806;BME280;21925;44.608;11.580;2023-05-12T12:32:59;101261.06;;;25.96;69.13
35806;BME280;21925;44.608;11.580;2023-05-12T12:35:25;101255.69;;;25.86;70.00
35806;BME280;21925;44.608;11.580;2023-05-12T12:37:51;101250.63;;;25.97;70.29
35806;BME280;21925;44.608;11.580;2023-05-12T12:40:22;101251.66;;;25.87;70.70